sensor_id;sensor_type;location;lat;lon;timestamp;temperature;humidity
6439;DHT22;3252;52.540;13.290;2024-02-04T00:01:50;20.20;99.80
6439;DHT22;3252;52.540;13.290;2024-02-04T00:03:52;20.20;99.80
6439;DHT22;3252;52.540;13.290;2024-02-04T00:05:54;20.20;99.80
6439;DHT22;3252;52.540;13.290;2024-02-04T00:07:57;20.20;99.90
6439;DHT22;3252;52.540;13.290;2024-02-04T00:09:59;20.20;99.90
6439;DHT22;3252;52.540;13.290;2024-02-04T00:12:01;20.20;99.90
6439;DHT22;3252;52.540;13.290;2024-02-04T00:14:04;20.20;99.90
6439;DHT22;3252;52.540;13.290;2024-02-04T00:16:06;20.20;99.90
6439;DHT22;3252;52.540;13.290;2024-02-04T00:18:09;20.10;99.90
6439;DHT22;3252;52.540;13.290;2024-02-04T00:20:11;20.10;99.90
6439;DHT22;3252;52.540;13.290;2024-02-04T00:22:13;20.10;99.90
6439;DHT22;3252;52.540;13.290;2024-02-04T00:24:19;20.10;99.90
6439;DHT22;3252;52.540;13.290;2024-02-04T00:26:21;20.10;99.90
6439;DHT22;3252;52.540;13.290;2024-02-04T00:28:22;20.10;99.90
6439;DHT22;3252;52.540;13.290;2024-02-04T00:30:24;20.10;99.90
6439;DHT22;3252;52.540;13.290;2024-02-04T00:32:27;20.10;99.90
6439;DHT22;3252;52.540;13.290;2024-02-04T00:34:28;20.10;99.90
6439;DHT22;3252;52.540;13.290;2024-02-04T00:36:30;20.10;99.90
6439;DHT22;3252;52.540;13.290;2024-02-04T00:38:32;20.10;99.90
6439;DHT22;3252;52.540;13.290;2024-02-04T00:40:36;20.10;99.90
6439;DHT22;3252;52.540;13.290;2024-02-04T00:42:38;20.10;99.90
6439;DHT22;3252;52.540;13.290;2024-02-04T00:44:40;20.00;99.90
6439;DHT22;3252;52.540;13.290;2024-02-04T00:46:42;20.00;99.90
6439;DHT22;3252;52.540;13.290;2024-02-04T00:48:44;20.10;99.90
6439;DHT22;3252;52.540;13.290;2024-02-04T00:50:46;20.10;99.90
6439;DHT22;3252;52.540;13.290;2024-02-04T00:52:49;20.00;99.90
6439;DHT22;3252;52.540;13.290;2024-02-04T00:54:51;20.00;99.90
6439;DHT22;3252;52.540;13.290;2024-02-04T00:56:55;20.00;99.90
6439;DHT22;3252;52.540;13.290;2024-02-04T00:58:58;20.00;99.90
6439;DHT22;3252;52.540;13.290;2024-02-04T01:01:00;20.00;99.90
6439;DHT22;3252;52.540;13.290;2024-02-04T01:03:02;20.00;99.90
6439;DHT22;3252;52.540;13.290;2024-02-04T01:05:06;20.00;99.90
6439;DHT22;3252;52.540;13.290;2024-02-04T01:07:08;20.00;99.90
6439;DHT22;3252;52.540;13.290;2024-02-04T01:09:09;20.00;99.90
6439;DHT22;3252;52.540;13.290;2024-02-04T01:11:11;20.00;99.90
6439;DHT22;3252;52.540;13.290;2024-02-04T01:13:15;20.00;99.90
6439;DHT22;3252;52.540;13.290;2024-02-04T01:15:17;20.00;99.90
6439;DHT22;3252;52.540;13.290;2024-02-04T01:17:19;19.90;99.90
6439;DHT22;3252;52.540;13.290;2024-02-04T01:19:21;19.90;99.90
6439;DHT22;3252;52.540;13.290;2024-02-04T01:21:23;19.90;99.90
6439;DHT22;3252;52.540;13.290;2024-02-04T01:23:26;19.90;99.90
6439;DHT22;3252;52.540;13.290;2024-02-04T01:25:28;19.90;99.90
6439;DHT22;3252;52.540;13.290;2024-02-04T01:27:30;19.90;99.90
6439;DHT22;3252;52.540;13.290;2024-02-04T01:29:33;19.90;99.90
6439;DHT22;3252;52.540;13.290;2024-02-04T01:31:35;19.90;99.90
6439;DHT22;3252;52.540;13.290;2024-02-04T01:33:37;19.90;99.90
6439;DHT22;3252;52.540;13.290;2024-02-04T01:35:39;19.90;99.90
6439;DHT22;3252;52.540;13.290;2024-02-04T01:37:41;19.90;99.90
6439;DHT22;3252;52.540;13.290;2024-02-04T01:39:44;19.90;99.90
6439;DHT22;3252;52.540;13.290;2024-02-04T01:41:46;19.90;99.90
6439;DHT22;3252;52.540;13.290;2024-02-04T01:43:48;19.80;99.90
6439;DHT22;3252;52.540;13.290;2024-02-04T01:45:51;19.80;99.90
6439;DHT22;3252;52.540;13.290;2024-02-04T01:47:54;19.80;99.90
6439;DHT22;3252;52.540;13.290;2024-02-04T01:49:56;19.80;99.90
6439;DHT22;3252;52.540;13.290;2024-02-04T01:51:58;19.80;99.90
6439;DHT22;3252;52.540;13.290;2024-02-04T01:54:01;19.80;99.90
6439;DHT22;3252;52.540;13.290;2024-02-04T01:56:04;19.80;99.90
6439;DHT22;3252;52.540;13.290;2024-02-04T01:58:07;19.80;99.90
6439;DHT22;3252;52.540;13.290;2024-02-04T02:00:09;19.80;99.90
6439;DHT22;3252;52.540;13.290;2024-02-04T02:02:14;19.80;99.90
6439;DHT22;3252;52.540;13.290;2024-02-04T02:04:16;19.80;99.90
6439;DHT22;3252;52.540;13.290;2024-02-04T02:06:19;19.80;99.90
6439;DHT22;3252;52.540;13.290;2024-02-04T02:08:21;19.70;99.80
6439;DHT22;3252;52.540;13.290;2024-02-04T02:10:23;19.70;99.80
6439;DHT22;3252;52.540;13.290;2024-02-04T02:12:28;19.80;99.90
6439;DHT22;3252;52.540;13.290;2024-02-04T02:14:34;19.70;99.80
6439;DHT22;3252;52.540;13.290;2024-02-04T02:16:37;19.70;99.80
6439;DHT22;3252;52.540;13.290;2024-02-04T02:18:45;19.70;99.80
6439;DHT22;3252;52.540;13.290;2024-02-04T02:21:09;19.70;99.80
6439;DHT22;3252;52.540;13.290;2024-02-04T02:23:21;19.70;99.80
6439;DHT22;3252;52.540;13.290;2024-02-04T02:25:25;19.70;99.80
6439;DHT22;3252;52.540;13.290;2024-02-04T02:27:26;19.70;99.80
6439;DHT22;3252;52.540;13.290;2024-02-04T02:29:29;19.70;99.80
6439;DHT22;3252;52.540;13.290;2024-02-04T02:31:31;19.70;99.80
6439;DHT22;3252;52.540;13.290;2024-02-04T02:33:33;19.70;99.80
6439;DHT22;3252;52.540;13.290;2024-02-04T02:35:35;19.60;99.90
6439;DHT22;3252;52.540;13.290;2024-02-04T02:37:41;19.60;99.80
6439;DHT22;3252;52.540;13.290;2024-02-04T02:39:49;19.60;99.80
6439;DHT22;3252;52.540;13.290;2024-02-04T02:41:57;19.60;99.80
6439;DHT22;3252;52.540;13.290;2024-02-04T02:44:01;19.60;99.80
6439;DHT22;3252;52.540;13.290;2024-02-04T02:46:04;19.60;99.80
6439;DHT22;3252;52.540;13.290;2024-02-04T02:48:07;19.60;99.80
6439;DHT22;3252;52.540;13.290;2024-02-04T02:50:10;19.60;99.80
6439;DHT22;3252;52.540;13.290;2024-02-04T02:52:12;19.60;99.80
6439;DHT22;3252;52.540;13.290;2024-02-04T02:54:14;19.60;99.90
6439;DHT22;3252;52.540;13.290;2024-02-04T02:56:16;19.60;99.90
6439;DHT22;3252;52.540;13.290;2024-02-04T02:58:20;19.60;99.90
6439;DHT22;3252;52.540;13.290;2024-02-04T03:00:22;19.60;99.80
6439;DHT22;3252;52.540;13.290;2024-02-04T03:02:24;19.50;99.80
6439;DHT22;3252;52.540;13.290;2024-02-04T03:04:26;19.60;99.90
6439;DHT22;3252;52.540;13.290;2024-02-04T03:06:28;19.50;99.80
6439;DHT22;3252;52.540;13.290;2024-02-04T03:08:30;19.50;99.80
6439;DHT22;3252;52.540;13.290;2024-02-04T03:10:32;19.50;99.80
6439;DHT22;3252;52.540;13.290;2024-02-04T03:12:35;19.50;99.90
6439;DHT22;3252;52.540;13.290;2024-02-04T03:14:38;19.50;99.80
6439;DHT22;3252;52.540;13.290;2024-02-04T03:16:40;19.50;99.80
6439;DHT22;3252;52.540;13.290;2024-02-04T03:18:46;19.50;99.80
6439;DHT22;3252;52.540;13.290;2024-02-04T03:20:48;19.50;99.80
6439;DHT22;3252;52.540;13.290;2024-02-04T03:22:50;19.50;99.80
6439;DHT22;3252;52.540;13.290;2024-02-04T03:24:53;19.50;99.80
6439;DHT22;3252;52.540;13.290;2024-02-04T03:26:56;19.50;99.80
6439;DHT22;3252;52.540;13.290;2024-02-04T03:28:57;19.50;99.80
6439;DHT22;3252;52.540;13.290;2024-02-04T03:31:01;19.50;99.80
6439;DHT22;3252;52.540;13.290;2024-02-04T03:33:03;19.50;99.80
6439;DHT22;3252;52.540;13.290;2024-02-04T03:35:07;19.50;99.80
6439;DHT22;3252;52.540;13.290;2024-02-04T03:37:09;19.50;99.70
6439;DHT22;3252;52.540;13.290;2024-02-04T03:39:12;19.50;99.70
6439;DHT22;3252;52.540;13.290;2024-02-04T03:41:13;19.50;99.70
6439;DHT22;3252;52.540;13.290;2024-02-04T03:43:15;19.50;99.70
6439;DHT22;3252;52.540;13.290;2024-02-04T03:45:16;19.50;99.90
6439;DHT22;3252;52.540;13.290;2024-02-04T03:47:20;19.50;99.60
6439;DHT22;3252;52.540;13.290;2024-02-04T03:49:22;19.50;99.70
6439;DHT22;3252;52.540;13.290;2024-02-04T03:51:23;19.40;99.60
6439;DHT22;3252;52.540;13.290;2024-02-04T03:53:25;19.50;99.60
6439;DHT22;3252;52.540;13.290;2024-02-04T03:55:26;19.40;99.60
6439;DHT22;3252;52.540;13.290;2024-02-04T03:57:28;19.40;99.50
6439;DHT22;3252;52.540;13.290;2024-02-04T03:59:30;19.50;99.60
6439;DHT22;3252;52.540;13.290;2024-02-04T04:01:32;19.40;99.50
6439;DHT22;3252;52.540;13.290;2024-02-04T04:03:36;19.40;99.50
6439;DHT22;3252;52.540;13.290;2024-02-04T04:05:37;19.50;99.50
6439;DHT22;3252;52.540;13.290;2024-02-04T04:07:39;19.50;99.50
6439;DHT22;3252;52.540;13.290;2024-02-04T04:09:41;19.40;99.50
6439;DHT22;3252;52.540;13.290;2024-02-04T04:11:43;19.50;99.50
6439;DHT22;3252;52.540;13.290;2024-02-04T04:13:45;19.40;99.50
6439;DHT22;3252;52.540;13.290;2024-02-04T04:15:47;19.40;99.40
6439;DHT22;3252;52.540;13.290;2024-02-04T04:17:48;19.40;99.50
6439;DHT22;3252;52.540;13.290;2024-02-04T04:19:52;19.40;99.40
6439;DHT22;3252;52.540;13.290;2024-02-04T04:21:54;19.40;99.40
6439;DHT22;3252;52.540;13.290;2024-02-04T04:23:57;19.40;99.40
6439;DHT22;3252;52.540;13.290;2024-02-04T04:25:59;19.40;99.40
6439;DHT22;3252;52.540;13.290;2024-02-04T04:28:01;19.40;99.40
6439;DHT22;3252;52.540;13.290;2024-02-04T04:30:04;19.40;99.40
6439;DHT22;3252;52.540;13.290;2024-02-04T04:32:06;19.40;99.40
6439;DHT22;3252;52.540;13.290;2024-02-04T04:34:08;19.40;99.40
6439;DHT22;3252;52.540;13.290;2024-02-04T04:36:12;19.40;99.40
6439;DHT22;3252;52.540;13.290;2024-02-04T04:38:14;19.40;99.40
6439;DHT22;3252;52.540;13.290;2024-02-04T04:40:16;19.40;99.30
6439;DHT22;3252;52.540;13.290;2024-02-04T04:42:19;19.40;99.30
6439;DHT22;3252;52.540;13.290;2024-02-04T04:44:21;19.40;99.30
6439;DHT22;3252;52.540;13.290;2024-02-04T04:46:23;19.40;99.30
6439;DHT22;3252;52.540;13.290;2024-02-04T04:48:25;19.40;99.30
6439;DHT22;3252;52.540;13.290;2024-02-04T04:50:27;19.40;99.30
6439;DHT22;3252;52.540;13.290;2024-02-04T04:52:29;19.40;99.30
6439;DHT22;3252;52.540;13.290;2024-02-04T04:54:31;19.40;99.20
6439;DHT22;3252;52.540;13.290;2024-02-04T04:56:38;19.40;99.20
6439;DHT22;3252;52.540;13.290;2024-02-04T04:58:39;19.40;99.20
6439;DHT22;3252;52.540;13.290;2024-02-04T05:00:41;19.30;99.40
6439;DHT22;3252;52.540;13.290;2024-02-04T05:02:43;19.40;99.20
6439;DHT22;3252;52.540;13.290;2024-02-04T05:04:45;19.40;99.10
6439;DHT22;3252;52.540;13.290;2024-02-04T05:06:48;19.40;99.20
6439;DHT22;3252;52.540;13.290;2024-02-04T05:08:52;19.50;99.20
6439;DHT22;3252;52.540;13.290;2024-02-04T05:10:54;19.60;99.00
6439;DHT22;3252;52.540;13.290;2024-02-04T05:12:56;19.70;98.90
6439;DHT22;3252;52.540;13.290;2024-02-04T05:14:58;19.80;98.70
6439;DHT22;3252;52.540;13.290;2024-02-04T05:17:00;20.00;98.50
6439;DHT22;3252;52.540;13.290;2024-02-04T05:19:01;20.10;98.20
6439;DHT22;3252;52.540;13.290;2024-02-04T05:21:04;20.30;98.00
6439;DHT22;3252;52.540;13.290;2024-02-04T05:23:06;20.50;98.10
6439;DHT22;3252;52.540;13.290;2024-02-04T05:25:10;20.60;97.60
6439;DHT22;3252;52.540;13.290;2024-02-04T05:27:12;20.80;97.40
6439;DHT22;3252;52.540;13.290;2024-02-04T05:29:14;20.80;97.20
6439;DHT22;3252;52.540;13.290;2024-02-04T05:31:16;21.00;97.00
6439;DHT22;3252;52.540;13.290;2024-02-04T05:33:18;21.10;96.90
6439;DHT22;3252;52.540;13.290;2024-02-04T05:35:21;21.20;96.70
6439;DHT22;3252;52.540;13.290;2024-02-04T05:37:22;21.30;96.50
6439;DHT22;3252;52.540;13.290;2024-02-04T05:39:24;21.40;96.40
6439;DHT22;3252;52.540;13.290;2024-02-04T05:41:27;21.40;96.40
6439;DHT22;3252;52.540;13.290;2024-02-04T05:43:28;21.40;96.30
6439;DHT22;3252;52.540;13.290;2024-02-04T05:45:30;21.40;96.30
6439;DHT22;3252;52.540;13.290;2024-02-04T05:47:33;21.40;96.40
6439;DHT22;3252;52.540;13.290;2024-02-04T05:49:35;21.40;96.40
6439;DHT22;3252;52.540;13.290;2024-02-04T05:51:38;21.40;96.40
6439;DHT22;3252;52.540;13.290;2024-02-04T05:53:41;21.50;96.40
6439;DHT22;3252;52.540;13.290;2024-02-04T05:55:43;21.60;96.20
6439;DHT22;3252;52.540;13.290;2024-02-04T05:57:47;21.70;96.10
6439;DHT22;3252;52.540;13.290;2024-02-04T05:59:50;21.80;95.90
6439;DHT22;3252;52.540;13.290;2024-02-04T06:01:53;21.90;95.70
6439;DHT22;3252;52.540;13.290;2024-02-04T06:03:55;22.00;95.60
6439;DHT22;3252;52.540;13.290;2024-02-04T06:05:56;22.10;95.50
6439;DHT22;3252;52.540;13.290;2024-02-04T06:07:58;22.20;95.40
6439;DHT22;3252;52.540;13.290;2024-02-04T06:10:01;22.20;95.30
6439;DHT22;3252;52.540;13.290;2024-02-04T06:12:05;22.20;95.50
6439;DHT22;3252;52.540;13.290;2024-02-04T06:14:08;22.30;95.20
6439;DHT22;3252;52.540;13.290;2024-02-04T06:16:11;22.20;95.20
6439;DHT22;3252;52.540;13.290;2024-02-04T06:18:13;22.20;95.20
6439;DHT22;3252;52.540;13.290;2024-02-04T06:20:15;22.20;95.30
6439;DHT22;3252;52.540;13.290;2024-02-04T06:22:17;22.10;95.40
6439;DHT22;3252;52.540;13.290;2024-02-04T06:24:21;22.00;95.40
6439;DHT22;3252;52.540;13.290;2024-02-04T06:26:22;21.90;95.50
6439;DHT22;3252;52.540;13.290;2024-02-04T06:28:24;21.90;95.60
6439;DHT22;3252;52.540;13.290;2024-02-04T06:30:27;21.80;95.70
6439;DHT22;3252;52.540;13.290;2024-02-04T06:32:28;21.70;95.80
6439;DHT22;3252;52.540;13.290;2024-02-04T06:34:30;21.80;95.90
6439;DHT22;3252;52.540;13.290;2024-02-04T06:36:32;21.70;95.90
6439;DHT22;3252;52.540;13.290;2024-02-04T06:38:34;21.80;95.90
6439;DHT22;3252;52.540;13.290;2024-02-04T06:40:36;21.80;95.70
6439;DHT22;3252;52.540;13.290;2024-02-04T06:42:39;21.90;95.70
6439;DHT22;3252;52.540;13.290;2024-02-04T06:44:43;22.00;95.60
6439;DHT22;3252;52.540;13.290;2024-02-04T06:46:46;22.00;95.60
6439;DHT22;3252;52.540;13.290;2024-02-04T06:48:48;22.00;95.50
6439;DHT22;3252;52.540;13.290;2024-02-04T06:50:50;22.00;95.50
6439;DHT22;3252;52.540;13.290;2024-02-04T06:52:52;21.90;95.50
6439;DHT22;3252;52.540;13.290;2024-02-04T06:54:55;21.90;95.80
6439;DHT22;3252;52.540;13.290;2024-02-04T06:56:57;21.90;95.70
6439;DHT22;3252;52.540;13.290;2024-02-04T06:58:59;21.90;95.80
6439;DHT22;3252;52.540;13.290;2024-02-04T07:01:01;21.80;95.80
6439;DHT22;3252;52.540;13.290;2024-02-04T07:03:05;21.80;95.90
6439;DHT22;3252;52.540;13.290;2024-02-04T07:05:07;21.80;95.90
6439;DHT22;3252;52.540;13.290;2024-02-04T07:07:11;21.70;96.00
6439;DHT22;3252;52.540;13.290;2024-02-04T07:09:13;21.70;96.10
6439;DHT22;3252;52.540;13.290;2024-02-04T07:11:15;21.70;96.10
6439;DHT22;3252;52.540;13.290;2024-02-04T07:13:17;21.70;96.20
6439;DHT22;3252;52.540;13.290;2024-02-04T07:15:18;21.60;96.20
6439;DHT22;3252;52.540;13.290;2024-02-04T07:17:20;21.60;96.20
6439;DHT22;3252;52.540;13.290;2024-02-04T07:19:24;21.60;96.20
6439;DHT22;3252;52.540;13.290;2024-02-04T07:21:26;21.60;96.20
6439;DHT22;3252;52.540;13.290;2024-02-04T07:23:28;21.60;96.20
6439;DHT22;3252;52.540;13.290;2024-02-04T07:25:30;21.50;96.20
6439;DHT22;3252;52.540;13.290;2024-02-04T07:27:33;21.50;96.40
6439;DHT22;3252;52.540;13.290;2024-02-04T07:29:35;21.50;96.50
6439;DHT22;3252;52.540;13.290;2024-02-04T07:31:37;21.50;96.50
6439;DHT22;3252;52.540;13.290;2024-02-04T07:33:39;21.50;96.50
6439;DHT22;3252;52.540;13.290;2024-02-04T07:35:42;21.50;97.00
6439;DHT22;3252;52.540;13.290;2024-02-04T07:37:44;21.50;97.90
6439;DHT22;3252;52.540;13.290;2024-02-04T07:39:46;21.50;98.30
6439;DHT22;3252;52.540;13.290;2024-02-04T07:41:48;21.50;98.60
6439;DHT22;3252;52.540;13.290;2024-02-04T07:43:50;21.50;97.70
6439;DHT22;3252;52.540;13.290;2024-02-04T07:45:53;21.60;95.90
6439;DHT22;3252;52.540;13.290;2024-02-04T07:47:54;21.70;95.00
6439;DHT22;3252;52.540;13.290;2024-02-04T07:49:56;21.70;93.30
6439;DHT22;3252;52.540;13.290;2024-02-04T07:51:59;21.80;92.60
6439;DHT22;3252;52.540;13.290;2024-02-04T07:54:02;21.80;92.60
6439;DHT22;3252;52.540;13.290;2024-02-04T07:56:05;21.90;91.50
6439;DHT22;3252;52.540;13.290;2024-02-04T07:58:08;21.90;91.00
6439;DHT22;3252;52.540;13.290;2024-02-04T08:00:11;21.90;90.70
6439;DHT22;3252;52.540;13.290;2024-02-04T08:02:15;21.90;89.90
6439;DHT22;3252;52.540;13.290;2024-02-04T08:04:18;21.90;90.40
6439;DHT22;3252;52.540;13.290;2024-02-04T08:06:19;21.80;89.40
6439;DHT22;3252;52.540;13.290;2024-02-04T08:08:22;21.80;86.70
6439;DHT22;3252;52.540;13.290;2024-02-04T08:10:23;21.80;87.50
6439;DHT22;3252;52.540;13.290;2024-02-04T08:12:26;21.80;84.80
6439;DHT22;3252;52.540;13.290;2024-02-04T08:14:28;21.80;87.00
6439;DHT22;3252;52.540;13.290;2024-02-04T08:16:30;21.70;85.40
6439;DHT22;3252;52.540;13.290;2024-02-04T08:18:32;21.70;86.60
6439;DHT22;3252;52.540;13.290;2024-02-04T08:20:34;21.70;89.10
6439;DHT22;3252;52.540;13.290;2024-02-04T08:22:36;21.70;90.30
6439;DHT22;3252;52.540;13.290;2024-02-04T08:24:40;21.70;91.10
6439;DHT22;3252;52.540;13.290;2024-02-04T08:26:42;21.70;91.40
6439;DHT22;3252;52.540;13.290;2024-02-04T08:28:44;21.70;91.70
6439;DHT22;3252;52.540;13.290;2024-02-04T08:30:46;21.70;91.90
6439;DHT22;3252;52.540;13.290;2024-02-04T08:32:48;21.70;92.10
6439;DHT22;3252;52.540;13.290;2024-02-04T08:34:50;21.70;92.30
6439;DHT22;3252;52.540;13.290;2024-02-04T08:36:52;21.70;92.50
6439;DHT22;3252;52.540;13.290;2024-02-04T08:38:54;21.70;92.70
6439;DHT22;3252;52.540;13.290;2024-02-04T08:40:58;21.70;92.70
6439;DHT22;3252;52.540;13.290;2024-02-04T08:43:00;21.80;92.70
6439;DHT22;3252;52.540;13.290;2024-02-04T08:45:02;21.90;92.70
6439;DHT22;3252;52.540;13.290;2024-02-04T08:47:05;22.00;92.60
6439;DHT22;3252;52.540;13.290;2024-02-04T08:49:10;22.10;92.50
6439;DHT22;3252;52.540;13.290;2024-02-04T08:51:13;22.20;92.50
6439;DHT22;3252;52.540;13.290;2024-02-04T08:53:16;22.30;92.40
6439;DHT22;3252;52.540;13.290;2024-02-04T08:55:19;22.40;92.50
6439;DHT22;3252;52.540;13.290;2024-02-04T08:57:22;22.40;92.40
6439;DHT22;3252;52.540;13.290;2024-02-04T08:59:24;22.40;92.50
6439;DHT22;3252;52.540;13.290;2024-02-04T09:01:27;22.40;92.50
6439;DHT22;3252;52.540;13.290;2024-02-04T09:03:28;22.40;92.60
6439;DHT22;3252;52.540;13.290;2024-02-04T09:05:31;22.40;92.60
6439;DHT22;3252;52.540;13.290;2024-02-04T09:07:33;22.40;92.70
6439;DHT22;3252;52.540;13.290;2024-02-04T09:09:35;22.40;92.80
6439;DHT22;3252;52.540;13.290;2024-02-04T09:11:38;22.40;92.80
6439;DHT22;3252;52.540;13.290;2024-02-04T09:13:40;22.30;92.90
6439;DHT22;3252;52.540;13.290;2024-02-04T09:15:42;22.30;93.00
6439;DHT22;3252;52.540;13.290;2024-02-04T09:17:44;22.30;93.10
6439;DHT22;3252;52.540;13.290;2024-02-04T09:19:46;22.30;93.10
6439;DHT22;3252;52.540;13.290;2024-02-04T09:21:47;22.30;93.10
6439;DHT22;3252;52.540;13.290;2024-02-04T09:23:50;22.30;93.20
6439;DHT22;3252;52.540;13.290;2024-02-04T09:25:52;22.30;93.20
6439;DHT22;3252;52.540;13.290;2024-02-04T09:27:54;22.30;93.30
6439;DHT22;3252;52.540;13.290;2024-02-04T09:29:57;22.30;93.30
6439;DHT22;3252;52.540;13.290;2024-02-04T09:31:59;22.30;93.30
6439;DHT22;3252;52.540;13.290;2024-02-04T09:34:01;22.20;93.30
6439;DHT22;3252;52.540;13.290;2024-02-04T09:36:05;22.20;93.70
6439;DHT22;3252;52.540;13.290;2024-02-04T09:38:07;22.20;93.70
6439;DHT22;3252;52.540;13.290;2024-02-04T09:40:10;22.20;93.50
6439;DHT22;3252;52.540;13.290;2024-02-04T09:42:19;22.20;93.60
6439;DHT22;3252;52.540;13.290;2024-02-04T09:44:23;22.10;93.60
6439;DHT22;3252;52.540;13.290;2024-02-04T09:46:27;22.10;93.70
6439;DHT22;3252;52.540;13.290;2024-02-04T09:48:31;22.10;93.80
6439;DHT22;3252;52.540;13.290;2024-02-04T09:50:33;22.10;93.80
6439;DHT22;3252;52.540;13.290;2024-02-04T09:52:39;22.00;93.80
6439;DHT22;3252;52.540;13.290;2024-02-04T09:54:45;22.00;93.90
6439;DHT22;3252;52.540;13.290;2024-02-04T09:56:50;22.00;94.00
6439;DHT22;3252;52.540;13.290;2024-02-04T09:58:52;22.00;94.00
6439;DHT22;3252;52.540;13.290;2024-02-04T10:00:54;21.90;94.00
6439;DHT22;3252;52.540;13.290;2024-02-04T10:02:58;21.90;94.10
6439;DHT22;3252;52.540;13.290;2024-02-04T10:05:00;21.90;94.20
6439;DHT22;3252;52.540;13.290;2024-02-04T10:07:04;21.90;94.30
6439;DHT22;3252;52.540;13.290;2024-02-04T10:09:06;21.80;94.20
6439;DHT22;3252;52.540;13.290;2024-02-04T10:11:09;21.90;94.30
6439;DHT22;3252;52.540;13.290;2024-02-04T10:13:11;21.90;94.20
6439;DHT22;3252;52.540;13.290;2024-02-04T10:15:13;22.00;94.20
6439;DHT22;3252;52.540;13.290;2024-02-04T10:17:17;22.10;94.10
6439;DHT22;3252;52.540;13.290;2024-02-04T10:19:25;22.10;94.00
6439;DHT22;3252;52.540;13.290;2024-02-04T10:21:27;22.20;94.00
6439;DHT22;3252;52.540;13.290;2024-02-04T10:23:29;22.20;93.90
6439;DHT22;3252;52.540;13.290;2024-02-04T10:25:32;22.20;93.90
6439;DHT22;3252;52.540;13.290;2024-02-04T10:27:34;22.20;93.90
6439;DHT22;3252;52.540;13.290;2024-02-04T10:29:36;22.20;93.90
6439;DHT22;3252;52.540;13.290;2024-02-04T10:31:39;22.20;93.90
6439;DHT22;3252;52.540;13.290;2024-02-04T10:33:41;22.20;93.90
6439;DHT22;3252;52.540;13.290;2024-02-04T10:35:45;22.20;93.90
6439;DHT22;3252;52.540;13.290;2024-02-04T10:37:47;22.20;93.90
6439;DHT22;3252;52.540;13.290;2024-02-04T10:39:49;22.20;93.90
6439;DHT22;3252;52.540;13.290;2024-02-04T10:41:52;22.20;93.90
6439;DHT22;3252;52.540;13.290;2024-02-04T10:43:54;22.30;94.00
6439;DHT22;3252;52.540;13.290;2024-02-04T10:46:01;22.30;94.00
6439;DHT22;3252;52.540;13.290;2024-02-04T10:48:04;22.30;94.00
6439;DHT22;3252;52.540;13.290;2024-02-04T10:50:07;22.30;94.00
6439;DHT22;3252;52.540;13.290;2024-02-04T10:52:11;22.20;94.10
6439;DHT22;3252;52.540;13.290;2024-02-04T10:54:15;22.20;94.10
6439;DHT22;3252;52.540;13.290;2024-02-04T10:56:21;22.20;94.10
6439;DHT22;3252;52.540;13.290;2024-02-04T10:58:23;22.20;94.10
6439;DHT22;3252;52.540;13.290;2024-02-04T11:00:27;22.20;94.30
6439;DHT22;3252;52.540;13.290;2024-02-04T11:02:31;22.20;94.30
6439;DHT22;3252;52.540;13.290;2024-02-04T11:04:36;22.20;94.30
6439;DHT22;3252;52.540;13.290;2024-02-04T11:06:38;22.20;94.30
6439;DHT22;3252;52.540;13.290;2024-02-04T11:08:43;22.20;94.30
6439;DHT22;3252;52.540;13.290;2024-02-04T11:10:45;22.20;94.30
6439;DHT22;3252;52.540;13.290;2024-02-04T11:12:48;22.20;94.20
6439;DHT22;3252;52.540;13.290;2024-02-04T11:14:54;22.20;94.20
6439;DHT22;3252;52.540;13.290;2024-02-04T11:19:32;22.20;94.20
6439;DHT22;3252;52.540;13.290;2024-02-04T11:22:17;22.20;94.20
6439;DHT22;3252;52.540;13.290;2024-02-04T11:24:36;22.20;94.20
6439;DHT22;3252;52.540;13.290;2024-02-04T11:26:44;22.20;94.20
6439;DHT22;3252;52.540;13.290;2024-02-04T11:28:47;22.10;94.20
6439;DHT22;3252;52.540;13.290;2024-02-04T11:30:49;22.10;94.30
6439;DHT22;3252;52.540;13.290;2024-02-04T11:32:51;22.10;94.50
6439;DHT22;3252;52.540;13.290;2024-02-04T11:34:54;22.10;94.60
6439;DHT22;3252;52.540;13.290;2024-02-04T11:36:56;22.10;94.70
6439;DHT22;3252;52.540;13.290;2024-02-04T11:38:59;22.10;94.90
6439;DHT22;3252;52.540;13.290;2024-02-04T11:41:06;22.10;95.00
6439;DHT22;3252;52.540;13.290;2024-02-04T11:43:11;22.10;95.10
6439;DHT22;3252;52.540;13.290;2024-02-04T11:45:14;22.10;95.20
6439;DHT22;3252;52.540;13.290;2024-02-04T11:47:23;22.00;95.30
6439;DHT22;3252;52.540;13.290;2024-02-04T11:49:25;22.00;95.40
6439;DHT22;3252;52.540;13.290;2024-02-04T11:51:28;22.00;95.50
6439;DHT22;3252;52.540;13.290;2024-02-04T11:53:31;22.00;95.60
6439;DHT22;3252;52.540;13.290;2024-02-04T11:55:34;22.00;95.80
6439;DHT22;3252;52.540;13.290;2024-02-04T11:57:37;22.00;96.00
6439;DHT22;3252;52.540;13.290;2024-02-04T11:59:39;22.00;96.40
6439;DHT22;3252;52.540;13.290;2024-02-04T12:01:41;22.00;96.20
6439;DHT22;3252;52.540;13.290;2024-02-04T12:03:43;22.00;96.40
6439;DHT22;3252;52.540;13.290;2024-02-04T12:05:45;22.00;96.40
6439;DHT22;3252;52.540;13.290;2024-02-04T12:07:48;22.00;96.40
6439;DHT22;3252;52.540;13.290;2024-02-04T12:09:51;22.00;96.40
6439;DHT22;3252;52.540;13.290;2024-02-04T12:11:54;22.10;96.50
6439;DHT22;3252;52.540;13.290;2024-02-04T12:13:58;22.10;96.60
6439;DHT22;3252;52.540;13.290;2024-02-04T12:16:02;22.10;96.70
6439;DHT22;3252;52.540;13.290;2024-02-04T12:18:08;22.10;96.80
6439;DHT22;3252;52.540;13.290;2024-02-04T12:20:10;22.10;96.80
6439;DHT22;3252;52.540;13.290;2024-02-04T12:22:13;22.00;96.80
6439;DHT22;3252;52.540;13.290;2024-02-04T12:24:16;22.00;96.90
6439;DHT22;3252;52.540;13.290;2024-02-04T12:26:18;22.00;96.90
6439;DHT22;3252;52.540;13.290;2024-02-04T12:28:20;22.00;97.00
6439;DHT22;3252;52.540;13.290;2024-02-04T12:30:23;22.00;97.00
6439;DHT22;3252;52.540;13.290;2024-02-04T12:32:25;22.00;97.00
6439;DHT22;3252;52.540;13.290;2024-02-04T12:34:27;22.00;97.00
6439;DHT22;3252;52.540;13.290;2024-02-04T12:36:30;22.10;97.10
6439;DHT22;3252;52.540;13.290;2024-02-04T12:38:33;22.10;97.10
6439;DHT22;3252;52.540;13.290;2024-02-04T12:40:36;22.10;97.10
6439;DHT22;3252;52.540;13.290;2024-02-04T12:42:38;22.10;97.10
6439;DHT22;3252;52.540;13.290;2024-02-04T12:44:39;22.10;97.10
6439;DHT22;3252;52.540;13.290;2024-02-04T12:46:43;22.10;97.20
6439;DHT22;3252;52.540;13.290;2024-02-04T12:48:45;22.10;97.20
6439;DHT22;3252;52.540;13.290;2024-02-04T12:50:47;22.10;97.10
6439;DHT22;3252;52.540;13.290;2024-02-04T12:53:02;22.10;97.10
6439;DHT22;3252;52.540;13.290;2024-02-04T12:55:05;22.10;97.10
6439;DHT22;3252;52.540;13.290;2024-02-04T12:57:07;22.10;97.00
6439;DHT22;3252;52.540;13.290;2024-02-04T12:59:11;22.10;97.00
6439;DHT22;3252;52.540;13.290;2024-02-04T13:01:13;22.10;97.00
6439;DHT22;3252;52.540;13.290;2024-02-04T13:03:17;22.10;97.00
6439;DHT22;3252;52.540;13.290;2024-02-04T13:05:22;22.10;97.00
6439;DHT22;3252;52.540;13.290;2024-02-04T13:07:26;22.10;97.00
6439;DHT22;3252;52.540;13.290;2024-02-04T13:09:29;22.10;97.00
6439;DHT22;3252;52.540;13.290;2024-02-04T13:11:31;22.10;96.90